Bostwick, Florida
Current Conditions -  °F | °C
As of 12:15 AM on Wednesday 26 Nov 2014 (Local Time) from K28J Reporting Station
Haze Haze  
Wind Chill: 68°   Ceiling: 300
Heat Index: 68°   Visibility: 2.5mi
Dew Point: 68°   Wind: 5mph
Humidity: 100%   Direction: 300°WNW
Pressure: 29.86"   Gusts: NA
Location:  29.77°N, 81.64°W
Report Text: K28J 260515Z AUTO 30004KT 2 1/2SM BR OVC003 20/20 A2986 RMK AO2 LTG DSNT SE AND SW
Loading
Personal Weather Stations






























Interactive Weather Map New forecast layout! Learn more

10-Day Weather Forecast

Advertisements
Track Severe Weather on mobile